createdAt,value
2023-01-30T00:00:25.502Z,3.61
2023-01-30T00:01:25.484Z,3.61
2023-01-30T00:02:25.322Z,3.61
2023-01-30T00:03:25.320Z,3.61
2023-01-30T00:04:25.348Z,3.64
2023-01-30T00:05:25.287Z,3.61
2023-01-30T00:06:25.513Z,3.64
2023-01-30T00:07:25.274Z,3.65
2023-01-30T00:08:25.242Z,3.65
2023-01-30T00:09:25.247Z,3.67
2023-01-30T00:10:26.153Z,3.67
2023-01-30T00:11:25.353Z,3.68
2023-01-30T00:12:25.308Z,3.67
2023-01-30T00:13:25.189Z,3.70
2023-01-30T00:14:25.375Z,3.70
2023-01-30T00:15:25.229Z,3.72
2023-01-30T00:16:25.575Z,3.75
2023-01-30T00:17:25.167Z,3.75
2023-01-30T00:18:25.153Z,3.76
2023-01-30T00:19:25.314Z,3.76
2023-01-30T00:20:25.231Z,3.79
2023-01-30T00:21:25.281Z,3.83
2023-01-30T00:22:25.262Z,3.80
2023-01-30T00:23:25.262Z,3.82
2023-01-30T00:24:25.508Z,3.85
2023-01-30T00:25:25.318Z,3.85
2023-01-30T00:26:25.188Z,3.85
2023-01-30T00:27:25.200Z,3.88
2023-01-30T00:28:25.212Z,3.92
2023-01-30T00:29:25.020Z,3.92
2023-01-30T00:30:25.048Z,3.96
2023-01-30T00:31:25.040Z,3.96
2023-01-30T00:32:25.023Z,3.98
2023-01-30T00:33:25.027Z,3.97
2023-01-30T00:34:25.128Z,3.96
2023-01-30T00:35:25.111Z,3.98
2023-01-30T00:36:25.070Z,3.98
2023-01-30T00:37:25.079Z,3.98
2023-01-30T00:38:25.318Z,4.00
2023-01-30T00:39:25.303Z,4.00
2023-01-30T00:40:25.015Z,4.00
2023-01-30T00:41:24.993Z,3.98
2023-01-30T00:42:25.282Z,4.00
2023-01-30T00:43:24.893Z,3.98
2023-01-30T00:44:25.033Z,4.00
2023-01-30T00:45:25.074Z,4.01
2023-01-30T00:46:25.523Z,4.04
2023-01-30T00:47:25.083Z,4.06
2023-01-30T00:48:24.892Z,4.06
2023-01-30T00:49:24.972Z,4.08
2023-01-30T00:50:24.874Z,4.06
2023-01-30T00:51:24.979Z,4.07
2023-01-30T00:52:24.850Z,4.08
2023-01-30T00:53:24.926Z,4.12
2023-01-30T00:54:24.834Z,4.10
2023-01-30T00:55:24.802Z,4.14
2023-01-30T00:56:24.759Z,4.15
2023-01-30T00:57:25.069Z,4.14
2023-01-30T00:58:24.832Z,4.15
2023-01-30T00:59:24.751Z,4.18
2023-01-30T01:00:24.946Z,4.19
2023-01-30T01:01:24.716Z,4.21
2023-01-30T01:02:24.899Z,4.19
2023-01-30T01:03:25.001Z,4.21
2023-01-30T01:04:24.745Z,4.25
2023-01-30T01:05:24.786Z,4.25
2023-01-30T01:06:24.870Z,4.26
2023-01-30T01:07:24.818Z,4.26
2023-01-30T01:08:24.633Z,4.28
2023-01-30T01:09:24.832Z,4.26
2023-01-30T01:10:24.771Z,4.29
2023-01-30T01:11:24.957Z,4.28
2023-01-30T01:12:24.783Z,4.32
2023-01-30T01:13:24.778Z,4.33
2023-01-30T01:14:24.768Z,4.33
2023-01-30T01:15:24.650Z,4.33
2023-01-30T01:16:24.618Z,4.34
2023-01-30T01:17:24.672Z,4.32
2023-01-30T01:18:24.851Z,4.32
2023-01-30T01:19:25.119Z,4.33
2023-01-30T01:20:24.698Z,4.33
2023-01-30T01:21:24.580Z,4.32
2023-01-30T01:22:24.576Z,4.32
2023-01-30T01:23:24.496Z,4.29
2023-01-30T01:24:24.882Z,4.29
2023-01-30T01:25:24.553Z,4.28
2023-01-30T01:26:24.565Z,4.32
2023-01-30T01:27:24.479Z,4.32
2023-01-30T01:28:24.916Z,4.29
2023-01-30T01:29:24.848Z,4.29
2023-01-30T01:30:24.779Z,4.32
2023-01-30T01:31:24.837Z,4.33
2023-01-30T01:32:24.568Z,4.34
2023-01-30T01:33:24.414Z,4.37
2023-01-30T01:34:24.410Z,4.39
2023-01-30T01:35:24.595Z,4.36
2023-01-30T01:36:51.521Z,4.36
2023-01-30T01:37:24.372Z,4.37
2023-01-30T01:38:24.510Z,4.37
2023-01-30T01:39:24.487Z,4.37
2023-01-30T01:40:24.332Z,4.39
2023-01-30T01:41:24.312Z,4.42
2023-01-30T01:42:24.327Z,4.42
2023-01-30T01:43:24.315Z,4.43
2023-01-30T01:44:24.327Z,4.42
2023-01-30T01:45:24.305Z,4.43
2023-01-30T01:46:24.485Z,4.44
2023-01-30T01:47:24.348Z,4.44
2023-01-30T01:48:24.354Z,4.44
2023-01-30T01:49:24.239Z,4.44
2023-01-30T01:50:24.338Z,4.44
2023-01-30T01:51:24.291Z,4.44
2023-01-30T01:52:24.900Z,4.46
2023-01-30T01:53:24.200Z,4.47
2023-01-30T01:54:24.232Z,4.47
2023-01-30T01:55:24.190Z,4.47
2023-01-30T01:56:24.140Z,4.51
2023-01-30T01:57:24.232Z,4.54
2023-01-30T01:58:24.649Z,4.55
2023-01-30T01:59:24.292Z,4.54
2023-01-30T02:00:24.269Z,4.55
2023-01-30T02:01:24.296Z,4.52
2023-01-30T02:02:24.202Z,4.51
2023-01-30T02:03:24.143Z,4.52
2023-01-30T02:04:24.086Z,4.52
2023-01-30T02:05:24.301Z,4.52
2023-01-30T02:06:24.080Z,4.55
2023-01-30T02:07:24.089Z,4.57
2023-01-30T02:08:24.049Z,4.58
2023-01-30T02:09:24.120Z,4.58
2023-01-30T02:10:24.054Z,4.62
2023-01-30T02:11:24.244Z,4.64
2023-01-30T02:12:24.008Z,4.64
2023-01-30T02:13:24.014Z,4.64
2023-01-30T02:14:24.028Z,4.61
2023-01-30T02:15:24.136Z,4.65
2023-01-30T02:16:24.167Z,4.69
2023-01-30T02:17:23.994Z,4.65
2023-01-30T02:18:24.057Z,4.69
2023-01-30T02:19:23.932Z,4.70
2023-01-30T02:20:24.125Z,4.72
2023-01-30T02:21:23.996Z,4.73
2023-01-30T02:22:23.925Z,4.73
2023-01-30T02:23:23.897Z,4.72
2023-01-30T02:24:23.878Z,4.73
2023-01-30T02:25:23.879Z,4.73
2023-01-30T02:26:23.929Z,4.72
2023-01-30T02:27:23.914Z,4.73
2023-01-30T02:28:23.876Z,4.76
2023-01-30T02:29:24.055Z,4.76
2023-01-30T02:30:24.001Z,4.80
2023-01-30T02:31:23.992Z,4.83
2023-01-30T02:32:23.926Z,4.83
2023-01-30T02:33:23.888Z,4.83
2023-01-30T02:34:23.807Z,4.88
2023-01-30T02:35:24.009Z,4.88
2023-01-30T02:36:23.790Z,4.86
2023-01-30T02:37:23.823Z,4.88
2023-01-30T02:38:23.862Z,4.89
2023-01-30T02:39:23.985Z,4.89
2023-01-30T02:40:23.905Z,4.91
2023-01-30T02:41:23.738Z,4.94
2023-01-30T02:42:23.732Z,4.98
2023-01-30T02:43:23.925Z,4.99
2023-01-30T02:44:23.729Z,4.99
2023-01-30T02:45:24.005Z,5.02
2023-01-30T02:46:23.932Z,5.01
2023-01-30T02:47:23.682Z,4.98
2023-01-30T02:48:23.887Z,4.99
2023-01-30T02:49:23.654Z,4.99
2023-01-30T02:50:23.640Z,5.01
2023-01-30T02:51:23.642Z,5.01
2023-01-30T02:52:23.757Z,5.04
2023-01-30T02:53:23.601Z,5.02
2023-01-30T02:54:23.616Z,5.05
2023-01-30T02:55:23.647Z,5.05
2023-01-30T02:56:23.799Z,5.05
2023-01-30T02:57:23.756Z,5.09
2023-01-30T02:58:23.586Z,5.09
2023-01-30T02:59:23.565Z,5.10
2023-01-30T03:00:23.683Z,5.10
2023-01-30T03:01:23.779Z,5.10
2023-01-30T03:02:23.656Z,5.09
2023-01-30T03:03:23.687Z,5.13
2023-01-30T03:04:23.563Z,5.14
2023-01-30T03:05:23.654Z,5.14
2023-01-30T03:06:23.510Z,5.17
2023-01-30T03:07:23.461Z,5.17
2023-01-30T03:08:23.579Z,5.20
2023-01-30T03:09:23.839Z,5.19
2023-01-30T03:10:23.467Z,5.20
2023-01-30T03:11:23.653Z,5.20
2023-01-30T03:12:23.486Z,5.22
2023-01-30T03:13:23.457Z,5.23
2023-01-30T03:14:23.440Z,5.23
2023-01-30T03:15:23.520Z,5.27
2023-01-30T03:16:23.682Z,5.25
2023-01-30T03:17:23.603Z,5.28
2023-01-30T03:18:23.377Z,5.27
2023-01-30T03:19:23.628Z,5.28
2023-01-30T03:20:23.347Z,5.28
2023-01-30T03:21:23.383Z,5.28
2023-01-30T03:22:23.714Z,5.30
2023-01-30T03:23:23.450Z,5.28
2023-01-30T03:24:23.405Z,5.30
2023-01-30T03:25:23.495Z,5.30
2023-01-30T03:26:23.361Z,5.32
2023-01-30T03:27:23.510Z,5.31
2023-01-30T03:28:23.289Z,5.32
2023-01-30T03:29:23.263Z,5.31
2023-01-30T03:30:23.292Z,5.31
2023-01-30T03:31:23.362Z,5.31
2023-01-30T03:32:23.268Z,5.32
2023-01-30T03:33:23.285Z,5.32
2023-01-30T03:34:23.244Z,5.32
2023-01-30T03:35:23.310Z,5.35
2023-01-30T03:36:23.231Z,5.37
2023-01-30T03:37:23.534Z,5.37
2023-01-30T03:38:23.230Z,5.37
2023-01-30T03:39:23.482Z,5.34
2023-01-30T03:40:23.206Z,5.35
2023-01-30T03:41:23.156Z,5.32
2023-01-30T03:42:23.348Z,5.32
2023-01-30T03:43:23.359Z,5.31
2023-01-30T03:44:23.183Z,5.30
2023-01-30T03:45:23.236Z,5.32
2023-01-30T03:46:23.218Z,5.32
2023-01-30T03:47:23.180Z,5.32
2023-01-30T03:48:23.287Z,5.32
2023-01-30T03:49:23.090Z,5.35
2023-01-30T03:50:23.076Z,5.35
2023-01-30T03:51:23.299Z,5.37
2023-01-30T03:52:23.186Z,5.37
2023-01-30T03:53:23.015Z,5.35
2023-01-30T03:54:23.066Z,5.37
2023-01-30T03:55:23.116Z,5.35
2023-01-30T03:56:23.273Z,5.34
2023-01-30T03:57:23.146Z,5.34
2023-01-30T03:58:23.035Z,5.32
2023-01-30T03:59:22.980Z,5.31
2023-01-30T04:00:23.162Z,5.31
2023-01-30T04:01:23.089Z,5.30
2023-01-30T04:02:23.039Z,5.30
2023-01-30T04:03:22.976Z,5.27
2023-01-30T04:04:23.128Z,5.30
2023-01-30T04:05:22.912Z,5.28
2023-01-30T04:06:23.021Z,5.28
2023-01-30T04:07:22.887Z,5.30
2023-01-30T04:08:22.902Z,5.31
2023-01-30T04:09:23.146Z,5.30
2023-01-30T04:10:22.880Z,5.28
2023-01-30T04:11:22.882Z,5.28
2023-01-30T04:12:22.969Z,5.28
2023-01-30T04:13:23.028Z,5.28
2023-01-30T04:14:22.982Z,5.28
2023-01-30T04:15:23.053Z,5.30
2023-01-30T04:16:23.002Z,5.28
2023-01-30T04:17:22.870Z,5.31
2023-01-30T04:18:22.804Z,5.31
2023-01-30T04:19:22.799Z,5.31
2023-01-30T04:20:22.947Z,5.31
2023-01-30T04:21:22.883Z,5.31
2023-01-30T04:22:22.756Z,5.30
2023-01-30T04:23:22.786Z,5.31
2023-01-30T04:24:22.887Z,5.31
2023-01-30T04:25:22.815Z,5.32
2023-01-30T04:26:23.029Z,5.34
2023-01-30T04:27:22.887Z,5.35
2023-01-30T04:28:22.848Z,5.34
2023-01-30T04:29:22.693Z,5.32
2023-01-30T04:30:22.757Z,5.31
2023-01-30T04:31:22.865Z,5.32
2023-01-30T04:32:22.843Z,5.34
2023-01-30T04:33:22.850Z,5.32
2023-01-30T04:34:22.797Z,5.34
2023-01-30T04:35:22.624Z,5.32
2023-01-30T04:36:22.756Z,5.32
2023-01-30T04:37:22.606Z,5.30
2023-01-30T04:38:22.614Z,5.31
2023-01-30T04:39:22.746Z,5.28
2023-01-30T04:40:22.588Z,5.30
2023-01-30T04:41:22.580Z,5.31
2023-01-30T04:42:22.607Z,5.30
2023-01-30T04:43:22.603Z,5.30
2023-01-30T04:44:22.570Z,5.30
2023-01-30T04:45:23.063Z,5.30
2023-01-30T04:46:22.535Z,5.32
2023-01-30T04:47:22.668Z,5.34
2023-01-30T04:48:22.729Z,5.35
2023-01-30T04:49:25.342Z,5.35
2023-01-30T04:50:22.490Z,5.35
2023-01-30T04:51:22.756Z,5.37
2023-01-30T04:52:22.686Z,5.37
2023-01-30T04:53:22.597Z,5.34
2023-01-30T04:54:23.190Z,5.34
2023-01-30T04:55:22.506Z,5.35
2023-01-30T04:56:22.485Z,5.37
2023-01-30T04:57:22.449Z,5.38
2023-01-30T04:58:22.525Z,5.38
2023-01-30T04:59:22.559Z,5.40
2023-01-30T05:00:22.621Z,5.38
2023-01-30T05:01:22.732Z,5.38
2023-01-30T05:02:23.792Z,5.38
2023-01-30T05:03:22.523Z,5.38
2023-01-30T05:04:22.408Z,5.40
2023-01-30T05:05:22.598Z,5.38
2023-01-30T05:06:22.370Z,5.38
2023-01-30T05:07:22.563Z,5.40
2023-01-30T05:08:22.353Z,5.40
2023-01-30T05:09:22.527Z,5.40
2023-01-30T05:10:22.439Z,5.41
2023-01-30T05:11:22.309Z,5.45
2023-01-30T05:12:22.262Z,5.43
2023-01-30T05:13:22.297Z,5.45
2023-01-30T05:14:22.380Z,5.45
2023-01-30T05:15:22.429Z,5.45
2023-01-30T05:16:22.274Z,5.45
2023-01-30T05:17:22.296Z,5.45
2023-01-30T05:18:22.490Z,5.49
2023-01-30T05:19:22.210Z,5.48
2023-01-30T05:20:22.372Z,5.49
2023-01-30T05:21:22.262Z,5.49
2023-01-30T05:22:22.178Z,5.50
2023-01-30T05:23:22.359Z,5.50
2023-01-30T05:24:22.656Z,5.50
2023-01-30T05:25:22.182Z,5.50
2023-01-30T05:26:22.417Z,5.52
2023-01-30T05:27:22.354Z,5.53
2023-01-30T05:28:22.260Z,5.52
2023-01-30T05:29:22.550Z,5.53
2023-01-30T05:30:22.177Z,5.52
2023-01-30T05:31:22.247Z,5.53
2023-01-30T05:32:22.309Z,5.56
2023-01-30T05:33:22.137Z,5.55
2023-01-30T05:34:22.220Z,5.55
2023-01-30T05:35:22.108Z,5.56
2023-01-30T05:36:22.256Z,5.57
2023-01-30T05:37:22.075Z,5.59
2023-01-30T05:38:22.056Z,5.59
2023-01-30T05:39:22.037Z,5.64
2023-01-30T05:40:22.016Z,5.64
2023-01-30T05:41:22.041Z,5.64
2023-01-30T05:42:21.999Z,5.64
2023-01-30T05:43:21.992Z,5.66
2023-01-30T05:44:21.949Z,5.66
2023-01-30T05:45:22.036Z,5.66
2023-01-30T05:46:21.979Z,5.67
2023-01-30T05:47:21.949Z,5.66
2023-01-30T05:48:21.928Z,5.67
2023-01-30T05:49:21.961Z,5.68
2023-01-30T05:50:21.936Z,5.68
2023-01-30T05:51:22.003Z,5.68
2023-01-30T05:52:21.897Z,5.70
2023-01-30T05:53:21.937Z,5.70
2023-01-30T05:54:21.983Z,5.71
2023-01-30T05:55:21.876Z,5.70
2023-01-30T05:56:21.876Z,5.70
2023-01-30T05:57:21.879Z,5.71
2023-01-30T05:58:22.055Z,5.71
2023-01-30T05:59:22.060Z,5.73
2023-01-30T06:00:21.818Z,5.75
2023-01-30T06:01:21.879Z,5.75
2023-01-30T06:02:22.141Z,5.75
2023-01-30T06:03:21.834Z,5.74
2023-01-30T06:04:22.448Z,5.77
2023-01-30T06:05:21.819Z,5.77
2023-01-30T06:06:21.950Z,5.77
2023-01-30T06:07:21.885Z,5.77
2023-01-30T06:08:21.744Z,5.81
2023-01-30T06:09:22.010Z,5.78
2023-01-30T06:10:21.932Z,5.82
2023-01-30T06:11:21.889Z,5.82
2023-01-30T06:12:21.777Z,5.82
2023-01-30T06:13:21.903Z,5.83
2023-01-30T06:14:21.688Z,5.85
2023-01-30T06:15:21.857Z,5.83
2023-01-30T06:16:21.898Z,5.83
2023-01-30T06:17:21.673Z,5.83
2023-01-30T06:18:21.846Z,5.86
2023-01-30T06:19:21.662Z,5.86
2023-01-30T06:20:21.770Z,5.86
2023-01-30T06:21:21.777Z,5.86
2023-01-30T06:22:21.799Z,5.83
2023-01-30T06:23:21.578Z,5.85
2023-01-30T06:24:21.715Z,5.83
2023-01-30T06:25:21.593Z,5.88
2023-01-30T06:26:21.779Z,5.88
2023-01-30T06:27:21.815Z,5.88
2023-01-30T06:28:21.607Z,5.91
2023-01-30T06:29:21.673Z,5.93
2023-01-30T06:30:21.584Z,5.96
2023-01-30T06:31:21.567Z,5.96
2023-01-30T06:32:21.607Z,5.98
2023-01-30T06:33:22.000Z,5.98
2023-01-30T06:34:21.506Z,6.00
2023-01-30T06:35:21.515Z,6.00
2023-01-30T06:36:21.702Z,6.04
2023-01-30T06:37:21.748Z,6.04
2023-01-30T06:38:21.578Z,6.03
2023-01-30T06:39:21.548Z,6.06
2023-01-30T06:40:21.571Z,6.07
2023-01-30T06:41:21.639Z,6.04
2023-01-30T06:42:21.405Z,6.03
2023-01-30T06:43:21.392Z,6.06
2023-01-30T06:44:21.397Z,6.04
2023-01-30T06:45:21.464Z,6.04
2023-01-30T06:46:21.481Z,6.04
2023-01-30T06:47:21.750Z,6.03
2023-01-30T06:48:21.662Z,6.06
2023-01-30T06:49:21.900Z,6.04
2023-01-30T06:50:21.373Z,6.07
2023-01-30T06:51:21.730Z,6.09
2023-01-30T06:52:21.290Z,6.13
2023-01-30T06:53:21.498Z,6.18
2023-01-30T06:54:21.296Z,6.16
2023-01-30T06:55:21.589Z,6.16
2023-01-30T06:56:21.288Z,6.16
2023-01-30T06:57:21.315Z,6.16
2023-01-30T06:58:21.264Z,6.16
2023-01-30T06:59:21.243Z,6.19
2023-01-30T07:00:21.235Z,6.21
2023-01-30T07:01:21.263Z,6.25
2023-01-30T07:02:21.388Z,6.25
2023-01-30T07:03:21.302Z,6.25
2023-01-30T07:04:21.573Z,6.26
2023-01-30T07:05:21.554Z,6.25
2023-01-30T07:06:21.310Z,6.25
2023-01-30T07:07:21.208Z,6.25
2023-01-30T07:08:23.272Z,6.26
2023-01-30T07:09:21.185Z,6.21
2023-01-30T07:10:21.317Z,6.26
2023-01-30T07:11:21.369Z,6.29
2023-01-30T07:12:21.120Z,6.29
2023-01-30T07:13:21.130Z,6.29
2023-01-30T07:14:21.153Z,6.29
2023-01-30T07:15:21.419Z,6.30
2023-01-30T07:16:21.166Z,6.29
2023-01-30T07:17:21.177Z,6.28
2023-01-30T07:18:21.089Z,6.30
2023-01-30T07:19:21.174Z,6.29
2023-01-30T07:20:21.068Z,6.30
2023-01-30T07:21:21.058Z,6.29
2023-01-30T07:22:21.035Z,6.30
2023-01-30T07:23:21.036Z,6.29
2023-01-30T07:24:21.015Z,6.29
2023-01-30T07:25:21.306Z,6.30
2023-01-30T07:26:21.090Z,6.30
2023-01-30T07:27:21.029Z,6.30
2023-01-30T07:28:21.126Z,6.32
2023-01-30T07:29:21.126Z,6.30
2023-01-30T07:30:21.207Z,6.29
2023-01-30T07:31:20.943Z,6.28
2023-01-30T07:32:21.103Z,6.29
2023-01-30T07:33:21.009Z,6.25
2023-01-30T07:34:21.062Z,6.21
2023-01-30T07:35:21.454Z,6.18
2023-01-30T07:36:20.930Z,6.18
2023-01-30T07:37:20.920Z,6.13
2023-01-30T07:38:20.852Z,6.14
2023-01-30T07:39:20.877Z,6.11
2023-01-30T07:40:20.821Z,6.10
2023-01-30T07:41:20.797Z,6.09
2023-01-30T07:42:21.069Z,6.11
2023-01-30T07:43:20.838Z,6.11
2023-01-30T07:44:20.812Z,6.09
2023-01-30T07:45:20.870Z,6.07
2023-01-30T07:46:20.906Z,6.09
2023-01-30T07:47:20.999Z,6.09
2023-01-30T07:48:21.257Z,6.10
2023-01-30T07:49:21.197Z,6.11
2023-01-30T07:50:21.117Z,6.13
2023-01-30T07:51:20.961Z,6.14
2023-01-30T07:52:20.749Z,6.16
2023-01-30T07:53:20.881Z,6.19
2023-01-30T07:54:20.933Z,6.19
2023-01-30T07:55:21.608Z,6.18
2023-01-30T07:56:20.745Z,6.18
2023-01-30T07:57:20.936Z,6.18
2023-01-30T07:58:21.152Z,6.16
2023-01-30T07:59:20.651Z,6.16
2023-01-30T08:00:20.944Z,6.16
2023-01-30T08:01:20.698Z,6.18
2023-01-30T08:02:20.610Z,6.19
2023-01-30T08:03:20.883Z,6.21
2023-01-30T08:04:20.906Z,6.22
2023-01-30T08:05:20.641Z,6.19
2023-01-30T08:06:20.625Z,6.16
2023-01-30T08:07:20.766Z,6.11
2023-01-30T08:08:20.707Z,6.10
2023-01-30T08:09:20.940Z,6.09
2023-01-30T08:10:21.280Z,6.09
2023-01-30T08:11:20.528Z,6.09
2023-01-30T08:12:20.762Z,6.16
2023-01-30T08:13:20.536Z,6.28
2023-01-30T08:14:20.602Z,6.35
2023-01-30T08:15:22.611Z,6.41
2023-01-30T08:16:20.548Z,6.43
2023-01-30T08:17:20.474Z,6.47
2023-01-30T08:18:20.467Z,6.46
2023-01-30T08:19:21.011Z,6.46
2023-01-30T08:20:20.816Z,6.44
2023-01-30T08:21:20.917Z,6.47
2023-01-30T08:22:20.536Z,6.48
2023-01-30T08:23:20.415Z,6.48
2023-01-30T08:24:20.511Z,6.50
2023-01-30T08:25:20.512Z,6.48
2023-01-30T08:26:20.636Z,6.46
2023-01-30T08:27:20.855Z,6.46
2023-01-30T08:28:20.531Z,6.43
2023-01-30T08:29:20.523Z,6.44
2023-01-30T08:30:20.898Z,6.44
2023-01-30T08:31:20.407Z,6.44
2023-01-30T08:32:20.337Z,6.44
2023-01-30T08:33:20.445Z,6.41
2023-01-30T08:34:20.513Z,6.41
2023-01-30T08:35:20.452Z,6.44
2023-01-30T08:36:20.292Z,6.46
2023-01-30T08:37:20.443Z,6.47
2023-01-30T08:38:20.265Z,6.47
2023-01-30T08:39:20.282Z,6.48
2023-01-30T08:40:20.761Z,6.51
2023-01-30T08:41:20.304Z,6.50
2023-01-30T08:42:20.407Z,6.48
2023-01-30T08:43:20.212Z,6.47
2023-01-30T08:44:20.293Z,6.47
2023-01-30T08:45:20.484Z,6.47
2023-01-30T08:46:20.262Z,6.46
2023-01-30T08:47:20.317Z,6.47
2023-01-30T08:48:20.184Z,6.48
2023-01-30T08:49:20.190Z,6.53
2023-01-30T08:50:20.467Z,6.53
2023-01-30T08:51:20.207Z,6.56
2023-01-30T08:52:20.155Z,6.56
2023-01-30T08:53:20.193Z,6.56
2023-01-30T08:54:20.124Z,6.59
2023-01-30T08:55:20.361Z,6.61
2023-01-30T08:56:20.285Z,6.61
2023-01-30T08:57:20.509Z,6.61
2023-01-30T08:58:20.157Z,6.65
2023-01-30T08:59:20.262Z,6.65
2023-01-30T09:00:20.310Z,6.65
2023-01-30T09:01:20.417Z,6.66
2023-01-30T09:02:20.144Z,6.68
2023-01-30T09:03:20.263Z,6.66
2023-01-30T09:04:20.073Z,6.66
2023-01-30T09:05:20.027Z,6.66
2023-01-30T09:06:20.001Z,6.66
2023-01-30T09:07:19.991Z,6.68
2023-01-30T09:08:20.103Z,6.68
2023-01-30T09:09:20.297Z,6.66
2023-01-30T09:10:20.493Z,6.65
2023-01-30T09:11:19.969Z,6.65
2023-01-30T09:12:20.076Z,6.66
2023-01-30T09:13:19.944Z,6.66
2023-01-30T09:14:20.194Z,6.69
2023-01-30T09:15:19.923Z,6.69
2023-01-30T09:16:19.944Z,6.69
2023-01-30T09:17:20.001Z,6.68
2023-01-30T09:18:19.966Z,6.71
2023-01-30T09:19:19.847Z,6.69
2023-01-30T09:20:20.322Z,6.71
2023-01-30T09:21:20.058Z,6.69
2023-01-30T09:22:20.130Z,6.69
2023-01-30T09:23:19.817Z,6.76
2023-01-30T09:24:19.849Z,6.77
2023-01-30T09:25:19.953Z,6.80
2023-01-30T09:26:19.827Z,6.80
2023-01-30T09:27:19.793Z,6.81
2023-01-30T09:28:19.777Z,6.84
2023-01-30T09:29:19.819Z,6.83
2023-01-30T09:30:20.481Z,6.84
2023-01-30T09:31:20.056Z,6.84
2023-01-30T09:32:19.766Z,6.87
2023-01-30T09:33:19.772Z,6.87
2023-01-30T09:34:19.804Z,6.87
2023-01-30T09:35:19.709Z,6.87
2023-01-30T09:36:19.711Z,6.89
2023-01-30T09:37:19.682Z,6.87
2023-01-30T09:38:19.670Z,6.87
2023-01-30T09:39:19.714Z,6.87
2023-01-30T09:40:20.237Z,6.90
2023-01-30T09:41:19.676Z,6.94
2023-01-30T09:42:19.664Z,6.97
2023-01-30T09:43:19.638Z,6.98
2023-01-30T09:44:19.642Z,6.99
2023-01-30T09:45:19.801Z,7.01
2023-01-30T09:46:19.654Z,6.99
2023-01-30T09:47:19.662Z,7.02
2023-01-30T09:48:19.850Z,7.04
2023-01-30T09:49:19.736Z,7.02
2023-01-30T09:50:20.208Z,7.04
2023-01-30T09:51:19.565Z,7.04
2023-01-30T09:52:19.549Z,7.05
2023-01-30T09:53:19.630Z,7.02
2023-01-30T09:54:19.732Z,7.01
2023-01-30T09:55:19.679Z,6.99
2023-01-30T09:56:19.644Z,6.99
2023-01-30T09:57:21.992Z,6.99
2023-01-30T09:58:19.576Z,6.97
2023-01-30T09:59:19.494Z,6.95
2023-01-30T10:00:19.841Z,6.91
2023-01-30T10:01:20.672Z,6.91
2023-01-30T10:02:19.471Z,6.90
2023-01-30T10:03:19.646Z,6.90
2023-01-30T10:04:19.461Z,6.89
2023-01-30T10:05:19.443Z,6.91
2023-01-30T10:06:19.466Z,6.90
2023-01-30T10:07:19.601Z,6.90
2023-01-30T10:08:19.414Z,6.91
2023-01-30T10:09:19.503Z,6.95
2023-01-30T10:10:19.801Z,6.97
2023-01-30T10:11:19.687Z,7.01
2023-01-30T10:12:19.388Z,7.04
2023-01-30T10:13:19.526Z,7.07
2023-01-30T10:14:19.368Z,7.16
2023-01-30T10:15:19.360Z,7.26
2023-01-30T10:16:19.594Z,7.38
2023-01-30T10:17:19.291Z,7.47
2023-01-30T10:18:19.417Z,7.55
2023-01-30T10:19:33.658Z,7.52
2023-01-30T10:20:19.401Z,7.53
2023-01-30T10:21:19.583Z,7.53
2023-01-30T10:22:19.401Z,7.52
2023-01-30T10:23:19.237Z,7.50
2023-01-30T10:24:19.297Z,7.42
2023-01-30T10:25:19.465Z,7.41
2023-01-30T10:26:19.345Z,7.38
2023-01-30T10:27:19.454Z,7.37
2023-01-30T10:28:19.388Z,7.34
2023-01-30T10:29:19.253Z,7.32
2023-01-30T10:30:19.685Z,7.31
2023-01-30T10:31:19.469Z,7.31
2023-01-30T10:32:19.386Z,7.35
2023-01-30T10:33:19.342Z,7.35
2023-01-30T10:34:19.145Z,7.34
2023-01-30T10:35:19.336Z,7.31
2023-01-30T10:36:19.112Z,7.29
2023-01-30T10:37:19.153Z,7.29
2023-01-30T10:38:19.169Z,7.29
2023-01-30T10:39:19.127Z,7.31
2023-01-30T10:40:19.567Z,7.32
2023-01-30T10:41:19.097Z,7.34
2023-01-30T10:42:19.111Z,7.38
2023-01-30T10:43:19.055Z,7.38
2023-01-30T10:44:19.240Z,7.40
2023-01-30T10:45:19.207Z,7.35
2023-01-30T10:46:19.050Z,7.35
2023-01-30T10:47:19.371Z,7.35
2023-01-30T10:48:19.021Z,7.32
2023-01-30T10:49:19.211Z,7.32
2023-01-30T10:50:19.496Z,7.34
2023-01-30T10:51:18.990Z,7.35
2023-01-30T10:52:19.003Z,7.35
2023-01-30T10:53:18.971Z,7.34
2023-01-30T10:54:19.918Z,7.32
2023-01-30T10:55:28.138Z,7.35
2023-01-30T10:56:18.976Z,7.35
2023-01-30T10:57:18.961Z,7.34
2023-01-30T10:58:18.905Z,7.37
2023-01-30T10:59:18.965Z,7.44
2023-01-30T11:00:19.521Z,7.52
2023-01-30T11:01:18.863Z,7.60
2023-01-30T11:02:19.133Z,7.71
2023-01-30T11:03:19.267Z,7.74
2023-01-30T11:04:18.841Z,7.74
2023-01-30T11:05:19.268Z,7.72
2023-01-30T11:06:18.941Z,7.71
2023-01-30T11:07:18.829Z,7.75
2023-01-30T11:08:19.014Z,7.72
2023-01-30T11:09:18.862Z,7.69
2023-01-30T11:10:18.893Z,7.67
2023-01-30T11:11:18.881Z,7.62
2023-01-30T11:12:18.733Z,7.60
2023-01-30T11:13:18.788Z,7.62
2023-01-30T11:14:18.729Z,7.60
2023-01-30T11:15:19.260Z,7.60
2023-01-30T11:16:18.919Z,7.60
2023-01-30T11:17:18.779Z,7.62
2023-01-30T11:19:17.742Z,7.63
2023-01-30T11:19:24.149Z,7.63
2023-01-30T11:20:19.246Z,7.67
2023-01-30T11:21:18.722Z,7.72
2023-01-30T11:22:18.686Z,7.75
2023-01-30T11:23:19.129Z,7.78
2023-01-30T11:24:18.798Z,7.79
2023-01-30T11:25:19.231Z,7.77
2023-01-30T11:26:18.823Z,7.78
2023-01-30T11:27:18.796Z,7.79
2023-01-30T11:28:18.619Z,7.78
2023-01-30T11:29:18.587Z,7.78
2023-01-30T11:30:19.015Z,7.75
2023-01-30T11:31:28.310Z,7.79
2023-01-30T11:32:18.652Z,7.81
2023-01-30T11:33:18.648Z,7.82
2023-01-30T11:34:19.084Z,7.82
2023-01-30T11:35:18.596Z,7.81
2023-01-30T11:36:18.686Z,7.84
2023-01-30T11:37:18.671Z,7.85
2023-01-30T11:38:18.534Z,7.90
2023-01-30T11:39:18.774Z,7.93
2023-01-30T11:40:19.355Z,7.93
2023-01-30T11:41:18.588Z,7.92
2023-01-30T11:42:18.705Z,7.93
2023-01-30T11:43:18.508Z,7.92
2023-01-30T11:44:18.477Z,7.93
2023-01-30T11:45:18.732Z,7.92
2023-01-30T11:46:18.587Z,7.90
2023-01-30T11:47:18.671Z,7.90
2023-01-30T11:48:31.502Z,7.93
2023-01-30T11:49:50.101Z,7.92
2023-01-30T11:50:25.384Z,7.89
2023-01-30T11:51:18.412Z,7.90
2023-01-30T11:52:18.598Z,7.93
2023-01-30T11:53:18.355Z,7.94
2023-01-30T11:54:18.355Z,7.93
2023-01-30T11:55:18.657Z,7.93
2023-01-30T11:56:18.541Z,7.94
2023-01-30T11:57:18.324Z,7.97
2023-01-30T11:58:18.666Z,8.07
2023-01-30T11:59:18.288Z,8.11
2023-01-30T12:00:18.906Z,8.15
2023-01-30T12:01:18.421Z,8.17
2023-01-30T12:02:18.388Z,8.17
2023-01-30T12:03:18.385Z,8.15
2023-01-30T12:04:18.431Z,8.18
2023-01-30T12:05:18.682Z,8.17
2023-01-30T12:06:18.238Z,8.17
2023-01-30T12:07:18.410Z,8.18
2023-01-30T12:08:22.539Z,8.20
2023-01-30T12:09:18.396Z,8.18
2023-01-30T12:10:18.877Z,8.17
2023-01-30T12:11:18.181Z,8.12
2023-01-30T12:12:18.219Z,8.14
2023-01-30T12:13:18.381Z,8.15
2023-01-30T12:14:18.201Z,8.14
2023-01-30T12:15:18.354Z,8.28
2023-01-30T12:16:18.145Z,8.26
2023-01-30T12:17:18.168Z,8.26
2023-01-30T12:18:18.309Z,8.21
2023-01-30T12:19:18.109Z,8.14
2023-01-30T12:20:18.565Z,8.10
2023-01-30T12:21:18.180Z,8.07
2023-01-30T12:22:18.135Z,8.04
2023-01-30T12:23:18.065Z,8.04
2023-01-30T12:24:18.909Z,8.07
2023-01-30T12:25:18.197Z,8.03
2023-01-30T12:26:18.071Z,7.99
2023-01-30T12:27:18.010Z,7.99
2023-01-30T12:28:18.080Z,7.96
2023-01-30T12:29:18.006Z,7.94
2023-01-30T12:30:18.313Z,7.96
2023-01-30T12:31:18.217Z,7.94
2023-01-30T12:32:18.428Z,7.94
2023-01-30T12:33:22.532Z,7.96
2023-01-30T12:34:18.022Z,7.99
2023-01-30T12:35:18.204Z,8.04
2023-01-30T12:36:17.937Z,8.14
2023-01-30T12:37:18.249Z,8.25
2023-01-30T12:38:17.976Z,8.36
2023-01-30T12:39:17.910Z,8.79
2023-01-30T12:40:18.091Z,9.16
2023-01-30T12:41:17.894Z,9.40
2023-01-30T12:42:18.651Z,9.28
2023-01-30T12:43:18.008Z,9.23
2023-01-30T12:44:17.990Z,9.13
2023-01-30T12:45:18.254Z,9.04
2023-01-30T12:46:17.949Z,8.94
2023-01-30T12:47:18.196Z,8.88
2023-01-30T12:48:18.045Z,8.79
2023-01-30T12:49:17.962Z,8.78
2023-01-30T12:50:17.833Z,8.68
2023-01-30T12:51:17.799Z,8.62
2023-01-30T12:52:17.858Z,8.57
2023-01-30T12:53:17.867Z,8.54
2023-01-30T12:54:19.681Z,8.58
2023-01-30T12:55:17.928Z,8.62
2023-01-30T12:56:18.302Z,8.63
2023-01-30T12:57:18.043Z,8.66
2023-01-30T12:58:17.723Z,8.68
2023-01-30T12:59:17.966Z,8.68
2023-01-30T13:00:18.091Z,8.66
2023-01-30T13:01:17.757Z,8.63
2023-01-30T13:02:17.749Z,8.63
2023-01-30T13:03:17.652Z,8.63
2023-01-30T13:04:17.672Z,8.60
2023-01-30T13:05:17.640Z,8.54
2023-01-30T13:06:17.690Z,8.54
2023-01-30T13:07:17.611Z,8.53
2023-01-30T13:08:17.654Z,8.48
2023-01-30T13:09:17.628Z,8.48
2023-01-30T13:10:18.450Z,8.47
2023-01-30T13:11:17.616Z,8.40
2023-01-30T13:12:17.579Z,8.37
2023-01-30T13:13:17.599Z,8.35
2023-01-30T13:14:18.226Z,8.30
2023-01-30T13:15:17.525Z,8.32
2023-01-30T13:16:17.543Z,8.39
2023-01-30T13:17:17.901Z,8.55
2023-01-30T13:18:17.530Z,8.65